createdAt,value
2019-04-03T00:00:31.360Z,32.75
2019-04-03T00:03:35.150Z,32.69
2019-04-03T00:06:38.956Z,32.57
2019-04-03T00:09:42.600Z,32.79
2019-04-03T00:12:46.393Z,32.71
2019-04-03T00:15:50.520Z,32.56
2019-04-03T00:18:54.371Z,32.73
2019-04-03T00:21:58.080Z,32.79
2019-04-03T00:25:01.802Z,32.69
2019-04-03T00:28:05.515Z,32.75
2019-04-03T00:31:09.217Z,32.66
2019-04-03T00:34:13.104Z,32.71
2019-04-03T00:37:16.776Z,32.84
2019-04-03T00:40:20.713Z,32.67
2019-04-03T00:43:25.318Z,32.89
2019-04-03T00:46:29.219Z,32.89
2019-04-03T00:49:33.069Z,32.83
2019-04-03T00:52:36.743Z,32.84
2019-04-03T00:55:42.074Z,32.97
2019-04-03T00:58:45.762Z,32.97
2019-04-03T01:01:49.429Z,32.88
2019-04-03T01:04:53.093Z,32.92
2019-04-03T01:07:59.238Z,33.05
2019-04-03T01:11:02.292Z,32.98
2019-04-03T01:14:06.205Z,33.06
2019-04-03T01:17:10.074Z,33.20
2019-04-03T01:20:13.768Z,33.18
2019-04-03T01:23:17.417Z,33.32
2019-04-03T01:26:21.547Z,33.34
2019-04-03T01:29:25.419Z,33.30
2019-04-03T01:32:29.142Z,33.23
2019-04-03T01:35:32.959Z,33.48
2019-04-03T01:38:36.654Z,33.55
2019-04-03T01:41:40.901Z,33.50
2019-04-03T01:44:47.998Z,33.59
2019-04-03T01:47:52.389Z,33.37
2019-04-03T01:50:56.255Z,33.57
2019-04-03T01:54:13.723Z,33.52
2019-04-03T01:57:06.667Z,33.55
2019-04-03T02:00:11.633Z,33.54
2019-04-03T02:03:15.384Z,33.60
2019-04-03T02:06:19.081Z,33.95
2019-04-03T02:09:22.840Z,33.73
2019-04-03T02:12:27.573Z,33.72
2019-04-03T02:15:35.056Z,33.96
2019-04-03T02:18:39.053Z,34.10
2019-04-03T02:21:43.058Z,33.88
2019-04-03T02:24:50.063Z,33.86
2019-04-03T02:27:54.178Z,33.90
2019-04-03T02:31:00.197Z,34.18
2019-04-03T02:34:03.934Z,34.10
2019-04-03T02:37:10.827Z,34.03
2019-04-03T02:40:14.552Z,34.19
2019-04-03T02:43:19.860Z,34.33
2019-04-03T02:46:27.748Z,34.46
2019-04-03T02:49:31.037Z,34.35
2019-04-03T02:52:35.339Z,34.37
2019-04-03T02:55:40.603Z,34.46
2019-04-03T02:58:44.776Z,34.32
2019-04-03T03:01:48.390Z,34.49
2019-04-03T03:04:54.759Z,34.53
2019-04-03T03:07:57.749Z,34.48
2019-04-03T03:11:02.908Z,34.71
2019-04-03T03:14:07.677Z,34.90
2019-04-03T03:17:11.838Z,34.79
2019-04-03T03:20:15.939Z,34.70
2019-04-03T03:23:22.460Z,34.64
2019-04-03T03:26:25.515Z,35.06
2019-04-03T03:29:29.563Z,35.05
2019-04-03T03:32:35.685Z,34.84
2019-04-03T03:35:43.945Z,35.05
2019-04-03T03:38:44.655Z,35.07
2019-04-03T03:41:48.368Z,35.02
2019-04-03T03:44:53.096Z,35.08
2019-04-03T03:47:56.338Z,35.12
2019-04-03T03:50:59.930Z,35.25
2019-04-03T03:54:04.406Z,35.27
2019-04-03T03:57:08.033Z,35.27
2019-04-03T04:00:11.709Z,35.13
2019-04-03T04:03:15.472Z,35.23
2019-04-03T04:06:19.339Z,35.20
2019-04-03T04:09:24.036Z,35.22
2019-04-03T04:12:27.987Z,35.39
2019-04-03T04:15:31.911Z,35.73
2019-04-03T04:18:36.025Z,35.79
2019-04-03T04:21:42.635Z,35.42
2019-04-03T04:24:45.290Z,35.46
2019-04-03T04:27:49.126Z,35.85
2019-04-03T04:30:52.789Z,35.65
2019-04-03T04:33:56.659Z,35.69
2019-04-03T04:37:02.141Z,35.59
2019-04-03T04:40:05.713Z,35.92
2019-04-03T04:43:09.514Z,35.84
2019-04-03T04:46:13.500Z,35.80
2019-04-03T04:49:18.057Z,35.82
2019-04-03T04:52:21.778Z,35.58
2019-04-03T04:55:27.000Z,35.58
2019-04-03T04:58:30.783Z,35.81
2019-04-03T05:01:34.513Z,35.84
2019-04-03T05:04:38.217Z,35.78
2019-04-03T05:07:41.906Z,35.69
2019-04-03T05:10:47.382Z,35.82
2019-04-03T05:13:51.025Z,35.71
2019-04-03T05:16:55.912Z,35.59
2019-04-03T05:19:59.908Z,35.46
2019-04-03T05:23:03.812Z,35.68
2019-04-03T05:26:07.595Z,35.55
2019-04-03T05:29:11.382Z,35.56
2019-04-03T05:32:15.322Z,35.53
2019-04-03T05:35:18.988Z,35.27
2019-04-03T05:38:22.668Z,35.24
2019-04-03T05:41:28.558Z,35.16
2019-04-03T05:44:33.403Z,35.24
2019-04-03T05:47:39.275Z,35.12
2019-04-03T05:50:42.450Z,34.82
2019-04-03T05:53:46.098Z,34.79
2019-04-03T05:56:51.608Z,34.68
2019-04-03T06:00:00.814Z,34.53
2019-04-03T06:03:00.942Z,34.42
2019-04-03T06:06:04.546Z,34.14
2019-04-03T06:09:08.227Z,33.51
2019-04-03T06:12:13.899Z,33.56
2019-04-03T06:15:17.348Z,33.47
2019-04-03T06:18:21.060Z,33.34
2019-04-03T06:21:24.677Z,32.92
2019-04-03T06:24:28.363Z,32.68
2019-04-03T06:27:31.966Z,32.32
2019-04-03T06:30:35.658Z,31.88
2019-04-03T06:33:39.515Z,32.25
2019-04-03T06:36:43.159Z,32.07
2019-04-03T06:39:46.978Z,31.79
2019-04-03T06:42:50.895Z,31.17
2019-04-03T06:45:57.001Z,31.16
2019-04-03T06:49:00.304Z,31.82
2019-04-03T06:52:04.459Z,31.17
2019-04-03T06:55:08.161Z,31.40
2019-04-03T06:58:12.355Z,31.18
2019-04-03T07:01:16.392Z,31.28
2019-04-03T07:04:20.390Z,31.03
2019-04-03T07:07:33.519Z,31.11
2019-04-03T07:10:29.411Z,31.40
2019-04-03T07:13:33.029Z,30.62
2019-04-03T07:16:38.614Z,31.15
2019-04-03T07:19:42.144Z,30.99
2019-04-03T07:22:45.801Z,31.12
2019-04-03T07:25:49.611Z,30.12
2019-04-03T07:28:53.312Z,30.88
2019-04-03T07:31:57.096Z,30.62
2019-04-03T07:35:00.794Z,29.72
2019-04-03T07:38:04.778Z,30.15
2019-04-03T07:41:08.436Z,29.74
2019-04-03T07:44:12.298Z,29.41
2019-04-03T07:47:16.213Z,29.35
2019-04-03T07:50:19.946Z,29.26
2019-04-03T07:53:23.611Z,29.12
2019-04-03T07:56:27.292Z,29.47
2019-04-03T07:59:33.461Z,28.97
2019-04-03T08:02:36.567Z,29.73
2019-04-03T08:05:40.432Z,29.72
2019-04-03T08:08:45.163Z,29.85
2019-04-03T08:11:49.103Z,29.50
2019-04-03T08:14:52.776Z,28.69
2019-04-03T08:17:57.823Z,29.83
2019-04-03T08:21:02.268Z,29.35
2019-04-03T08:24:08.191Z,28.87
2019-04-03T08:27:11.599Z,28.26
2019-04-03T08:30:15.742Z,28.24
2019-04-03T08:33:25.590Z,28.29
2019-04-03T08:36:26.401Z,27.95
2019-04-03T08:39:30.774Z,28.12
2019-04-03T08:42:34.778Z,27.89
2019-04-03T08:45:39.249Z,27.92
2019-04-03T08:48:43.458Z,28.43
2019-04-03T08:51:47.079Z,27.68
2019-04-03T08:54:50.878Z,27.89
2019-04-03T08:57:54.569Z,28.36
2019-04-03T09:00:58.529Z,27.61
2019-04-03T09:04:02.108Z,28.37
2019-04-03T09:07:05.776Z,27.57
2019-04-03T09:10:09.412Z,28.07
2019-04-03T09:13:17.395Z,27.52
2019-04-03T09:16:18.453Z,28.30
2019-04-03T09:19:22.065Z,27.47
2019-04-03T09:22:26.160Z,27.56
2019-04-03T09:25:31.596Z,26.71
2019-04-03T09:28:35.562Z,26.95
2019-04-03T09:31:39.494Z,27.41
2019-04-03T09:34:43.607Z,26.96
2019-04-03T09:37:47.789Z,26.91
2019-04-03T09:40:52.016Z,26.08
2019-04-03T09:43:56.016Z,26.69
2019-04-03T09:47:02.919Z,26.19
2019-04-03T09:50:07.583Z,25.83
2019-04-03T09:53:11.562Z,25.58
2019-04-03T09:56:15.431Z,25.77
2019-04-03T09:59:19.157Z,25.61
2019-04-03T10:02:22.954Z,25.61
2019-04-03T10:05:28.990Z,25.40
2019-04-03T10:08:32.530Z,25.75
2019-04-03T10:11:38.427Z,25.59
2019-04-03T10:14:42.150Z,26.30
2019-04-03T10:17:46.092Z,26.12
2019-04-03T10:20:49.879Z,25.66
2019-04-03T10:23:53.600Z,25.80
2019-04-03T10:26:57.211Z,25.80
2019-04-03T10:30:01.142Z,25.37
2019-04-03T10:33:05.560Z,25.12
2019-04-03T10:36:11.443Z,24.83
2019-04-03T10:39:15.962Z,24.18
2019-04-03T10:42:19.312Z,25.87
2019-04-03T10:45:23.084Z,25.41
2019-04-03T10:48:27.867Z,24.95
2019-04-03T10:51:32.587Z,25.20
2019-04-03T10:54:38.010Z,25.20
2019-04-03T10:57:42.899Z,25.60
2019-04-03T11:00:46.812Z,25.65
2019-04-03T11:03:50.850Z,25.56
2019-04-03T11:06:54.741Z,24.70
2019-04-03T11:09:58.582Z,25.37
2019-04-03T11:13:03.268Z,25.66
2019-04-03T11:16:07.826Z,26.07
2019-04-03T11:19:11.786Z,26.07
2019-04-03T11:22:16.305Z,25.44
2019-04-03T11:25:19.929Z,25.36
2019-04-03T11:28:24.183Z,26.06
2019-04-03T11:31:29.585Z,26.05
2019-04-03T11:34:33.859Z,26.33
2019-04-03T11:37:37.790Z,26.48
2019-04-03T11:40:41.822Z,26.60
2019-04-03T11:43:45.502Z,27.45
2019-04-03T11:46:50.526Z,27.29
2019-04-03T11:49:53.562Z,27.57
2019-04-03T11:52:59.151Z,27.31
2019-04-03T11:56:03.266Z,27.65
2019-04-03T11:59:07.359Z,27.49
2019-04-03T12:02:11.928Z,27.66
2019-04-03T12:05:19.950Z,27.72
2019-04-03T12:08:21.793Z,27.50
2019-04-03T12:11:25.956Z,27.42
2019-04-03T12:14:29.902Z,27.30
2019-04-03T12:17:34.624Z,27.46
2019-04-03T12:20:41.209Z,27.84
2019-04-03T12:23:45.372Z,27.36
2019-04-03T12:26:51.703Z,27.26
2019-04-03T12:29:55.700Z,27.38
2019-04-03T12:33:00.409Z,27.38
2019-04-03T12:36:06.676Z,27.62
2019-04-03T12:39:14.539Z,27.96
2019-04-03T12:42:18.336Z,27.69
2019-04-03T12:45:22.147Z,27.95
2019-04-03T12:48:27.866Z,27.44
2019-04-03T12:51:31.582Z,28.01
2019-04-03T12:54:36.657Z,27.74
2019-04-03T12:57:41.684Z,27.91
2019-04-03T13:00:46.131Z,27.96
2019-04-03T13:03:50.557Z,28.17
2019-04-03T13:06:54.629Z,27.83
2019-04-03T13:09:58.970Z,27.97
2019-04-03T13:13:03.441Z,28.01
2019-04-03T13:16:10.276Z,28.20
2019-04-03T13:19:15.977Z,28.38
2019-04-03T13:22:20.331Z,28.08
2019-04-03T13:25:24.174Z,27.91
2019-04-03T13:28:28.474Z,28.13
2019-04-03T13:31:32.438Z,27.96
2019-04-03T13:34:36.509Z,28.20
2019-04-03T13:37:40.894Z,28.27
2019-04-03T13:40:45.044Z,28.23
2019-04-03T13:43:49.230Z,28.44
2019-04-03T13:46:53.390Z,28.12
2019-04-03T13:49:57.401Z,28.26
2019-04-03T13:53:01.686Z,27.83
2019-04-03T13:56:06.598Z,27.75
2019-04-03T13:59:11.021Z,28.04
2019-04-03T14:02:15.174Z,28.13
2019-04-03T14:05:19.176Z,28.20
2019-04-03T14:08:23.339Z,28.33
2019-04-03T14:11:29.878Z,28.09
2019-04-03T14:14:33.039Z,28.28
2019-04-03T14:17:37.133Z,28.29
2019-04-03T14:20:41.299Z,27.92
2019-04-03T14:23:45.058Z,27.92
2019-04-03T14:26:48.900Z,28.27
2019-04-03T14:29:52.654Z,27.85
2019-04-03T14:32:56.446Z,27.68
2019-04-03T14:36:00.180Z,27.78
2019-04-03T14:39:08.753Z,27.84
2019-04-03T14:42:11.003Z,27.86
2019-04-03T14:45:15.358Z,28.07
2019-04-03T14:48:19.731Z,27.59
2019-04-03T14:51:24.014Z,27.80
2019-04-03T14:54:30.353Z,27.41
2019-04-03T14:57:33.444Z,27.35
2019-04-03T15:00:37.893Z,27.43
2019-04-03T15:03:41.707Z,27.41
2019-04-03T15:06:46.387Z,27.37
2019-04-03T15:09:51.100Z,27.75
2019-04-03T15:12:55.158Z,27.36
2019-04-03T15:16:00.358Z,27.51
2019-04-03T15:19:05.020Z,27.47
2019-04-03T15:22:08.908Z,27.32
2019-04-03T15:25:15.019Z,27.61
2019-04-03T15:28:18.829Z,27.38
2019-04-03T15:31:24.067Z,27.50
2019-04-03T15:34:29.230Z,27.09
2019-04-03T15:37:33.738Z,27.42
2019-04-03T15:40:38.494Z,27.61
2019-04-03T15:43:45.393Z,27.57
2019-04-03T15:46:47.860Z,27.32
2019-04-03T15:49:52.112Z,27.56
2019-04-03T15:52:56.376Z,27.24
2019-04-03T15:56:00.498Z,27.61
2019-04-03T15:59:04.524Z,27.58
2019-04-03T16:02:10.515Z,27.64
2019-04-03T16:05:14.957Z,27.80
2019-04-03T16:08:18.699Z,27.93
2019-04-03T16:11:22.603Z,27.81
2019-04-03T16:14:28.168Z,28.03
2019-04-03T16:17:33.932Z,27.76
2019-04-03T16:20:37.433Z,27.74
2019-04-03T16:23:45.004Z,27.76
2019-04-03T16:26:49.317Z,28.02
2019-04-03T16:29:53.978Z,28.08
2019-04-03T16:33:01.830Z,28.03
2019-04-03T16:36:03.562Z,27.94
2019-04-03T16:39:08.268Z,27.95
2019-04-03T16:42:12.453Z,27.95
2019-04-03T16:45:16.322Z,27.80
2019-04-03T16:48:21.349Z,27.82
2019-04-03T16:51:24.627Z,27.83
2019-04-03T16:54:29.777Z,27.69
2019-04-03T16:57:34.644Z,27.77
2019-04-03T17:00:40.961Z,27.94
2019-04-03T17:03:44.426Z,27.87
2019-04-03T17:06:49.082Z,27.92
2019-04-03T17:09:52.740Z,27.79
2019-04-03T17:12:58.030Z,27.82
2019-04-03T17:16:02.471Z,27.81
2019-04-03T17:19:07.774Z,27.77
2019-04-03T17:22:11.730Z,27.67
2019-04-03T17:25:16.516Z,27.57
2019-04-03T17:28:21.034Z,27.74
2019-04-03T17:31:25.766Z,27.75
2019-04-03T17:34:29.712Z,27.99
2019-04-03T17:37:33.522Z,28.14
2019-04-03T17:40:37.326Z,28.04
2019-04-03T17:43:43.076Z,28.07
2019-04-03T17:46:49.357Z,28.12
2019-04-03T17:49:54.588Z,28.06
2019-04-03T17:52:58.511Z,28.20
2019-04-03T17:56:04.915Z,28.11
2019-04-03T17:59:10.483Z,27.97
2019-04-03T18:02:16.151Z,27.83
2019-04-03T18:05:21.744Z,27.99
2019-04-03T18:08:25.509Z,27.87
2019-04-03T18:11:29.352Z,27.61
2019-04-03T18:14:33.202Z,27.61
2019-04-03T18:17:37.133Z,27.56
2019-04-03T18:20:44.332Z,27.41
2019-04-03T18:23:48.664Z,27.32
2019-04-03T18:26:52.778Z,27.48
2019-04-03T18:29:58.192Z,27.53
2019-04-03T18:33:02.320Z,27.57
2019-04-03T18:36:07.810Z,27.75
2019-04-03T18:39:11.889Z,27.91
2019-04-03T18:42:18.567Z,28.00
2019-04-03T18:45:25.776Z,28.17
2019-04-03T18:48:31.274Z,28.21
2019-04-03T18:51:36.726Z,28.11
2019-04-03T18:54:42.493Z,28.41
2019-04-03T18:57:49.577Z,28.61
2019-04-03T19:00:53.531Z,29.08
2019-04-03T19:03:57.559Z,29.24
2019-04-03T19:07:01.503Z,29.33
2019-04-03T19:10:07.964Z,29.52
2019-04-03T19:13:13.988Z,29.50
2019-04-03T19:16:29.527Z,29.55
2019-04-03T19:19:25.819Z,29.74
2019-04-03T19:22:30.090Z,29.57
2019-04-03T19:25:34.320Z,29.59
2019-04-03T19:28:38.338Z,29.72
2019-04-03T19:31:42.748Z,29.59
2019-04-03T19:34:46.958Z,29.77
2019-04-03T19:37:51.358Z,29.65
2019-04-03T19:40:55.366Z,29.65
2019-04-03T19:44:00.667Z,29.89
2019-04-03T19:47:14.112Z,29.84
2019-04-03T19:50:21.321Z,29.84
2019-04-03T19:53:25.712Z,29.94
2019-04-03T19:56:29.526Z,29.87
2019-04-03T19:59:34.659Z,29.84
2019-04-03T20:02:43.020Z,29.86
2019-04-03T20:05:45.823Z,29.74
2019-04-03T20:08:49.798Z,29.84
2019-04-03T20:11:53.613Z,29.85
2019-04-03T20:14:58.998Z,29.80
2019-04-03T20:18:04.769Z,29.73
2019-04-03T20:21:09.884Z,29.89
2019-04-03T20:24:13.878Z,29.85
2019-04-03T20:27:19.773Z,29.87
2019-04-03T20:30:23.568Z,29.88
2019-04-03T20:33:27.544Z,29.88
2019-04-03T20:36:31.390Z,29.83
2019-04-03T20:39:35.282Z,30.02
2019-04-03T20:42:41.474Z,29.98
2019-04-03T20:45:45.363Z,30.16
2019-04-03T20:48:49.138Z,30.20
2019-04-03T20:51:53.493Z,30.27
2019-04-03T20:54:57.124Z,30.29
2019-04-03T20:58:00.829Z,30.42
2019-04-03T21:01:06.884Z,30.54
2019-04-03T21:04:09.968Z,30.51
2019-04-03T21:07:13.666Z,30.56
2019-04-03T21:10:17.444Z,30.36
2019-04-03T21:13:21.196Z,30.62
2019-04-03T21:16:33.075Z,30.73
2019-04-03T21:19:30.483Z,30.63
2019-04-03T21:22:34.486Z,30.74
2019-04-03T21:25:40.598Z,30.63
2019-04-03T21:28:44.827Z,30.90
2019-04-03T21:31:49.270Z,31.03
2019-04-03T21:34:53.017Z,30.91
2019-04-03T21:37:56.671Z,31.13
2019-04-03T21:41:00.375Z,30.98
2019-04-03T21:44:04.026Z,30.89
2019-04-03T21:47:07.899Z,31.18
2019-04-03T21:50:11.654Z,31.23
2019-04-03T21:53:15.338Z,31.14
2019-04-03T21:56:19.293Z,31.16
2019-04-03T21:59:22.996Z,31.08
2019-04-03T22:02:26.748Z,31.32
2019-04-03T22:05:30.679Z,31.30
2019-04-03T22:08:34.307Z,31.30
2019-04-03T22:11:37.995Z,31.43
2019-04-03T22:14:42.894Z,31.42
2019-04-03T22:17:47.064Z,31.56
2019-04-03T22:20:51.654Z,31.43
2019-04-03T22:23:55.725Z,31.48
2019-04-03T22:26:59.415Z,31.48
2019-04-03T22:30:03.072Z,31.56
2019-04-03T22:33:06.857Z,31.52
2019-04-03T22:36:10.766Z,31.61
2019-04-03T22:39:14.502Z,31.53
2019-04-03T22:42:18.380Z,31.68
2019-04-03T22:45:22.324Z,31.81
2019-04-03T22:48:27.506Z,31.52
2019-04-03T22:51:31.546Z,31.40
2019-04-03T22:54:35.507Z,31.43
2019-04-03T22:57:39.263Z,31.54
2019-04-03T23:00:42.918Z,31.70
2019-04-03T23:03:49.107Z,31.68
2019-04-03T23:06:52.350Z,31.55
2019-04-03T23:09:56.868Z,31.56
2019-04-03T23:13:00.371Z,31.63
2019-04-03T23:16:04.062Z,31.72
2019-04-03T23:19:07.676Z,31.55
2019-04-03T23:22:11.460Z,31.42
2019-04-03T23:25:15.424Z,31.39
2019-04-03T23:28:19.082Z,31.31
2019-04-03T23:31:22.947Z,31.25
2019-04-03T23:34:26.814Z,31.18
2019-04-03T23:37:30.581Z,31.22
2019-04-03T23:40:34.778Z,31.06
2019-04-03T23:43:39.526Z,31.04
2019-04-03T23:46:45.362Z,30.65
2019-04-03T23:49:50.903Z,30.63
2019-04-03T23:52:53.975Z,30.67
2019-04-03T23:55:57.928Z,30.67
2019-04-03T23:59:01.573Z,30.65
